Time;durP1;ratioP1;P1;durP2;ratioP2;P2;SDS_P1;SDS_P2;PMS_P1;PMS_P2;Temp;Humidity;BMP_temperature;BMP_pressure;BME280_temperature;BME280_humidity;BME280_pressure;Samples;Min_cycle;Max_cycle;Signal;HPM_P1;HPM_P2
2021/12/06 00:02:04;;;;;;;26.73;20.40;;;5.90;99.90;;;;;;5072652;28;20169;-71
2021/12/06 00:04:33;;;;;;;26.83;19.23;;;6.00;99.90;;;;;;5072442;28;20230;-71
2021/12/06 00:07:06;;;;;;;31.20;20.93;;;6.00;99.90;;;;;;5072537;28;20204;-71
2021/12/06 00:09:32;;;;;;;29.07;21.23;;;6.00;99.90;;;;;;5072457;28;20552;-71
2021/12/06 00:12:01;;;;;;;28.27;20.97;;;6.10;99.90;;;;;;5072638;28;20176;-70
2021/12/06 00:14:31;;;;;;;27.57;20.37;;;6.20;99.90;;;;;;5071320;28;20550;-71
2021/12/06 00:16:58;;;;;;;27.63;20.57;;;6.40;99.90;;;;;;5074942;28;20172;-71
2021/12/06 00:19:25;;;;;;;28.37;20.00;;;6.40;99.90;;;;;;5076368;28;20180;-70
2021/12/06 00:21:51;;;;;;;25.23;19.33;;;6.30;99.90;;;;;;5076082;28;20180;-71
2021/12/06 00:24:17;;;;;;;23.63;18.70;;;6.20;99.90;;;;;;5076255;28;20184;-71
2021/12/06 00:26:43;;;;;;;23.63;19.13;;;6.10;99.90;;;;;;5075770;28;20279;-70
2021/12/06 00:29:09;;;;;;;24.70;19.23;;;6.10;99.90;;;;;;5075771;28;20222;-69
2021/12/06 00:31:36;;;;;;;26.03;19.00;;;6.20;99.90;;;;;;5075309;28;20196;-71
2021/12/06 00:34:06;;;;;;;25.40;19.17;;;6.20;99.90;;;;;;5075814;28;20260;-70
2021/12/06 00:36:34;;;;;;;23.50;18.47;;;6.10;99.90;;;;;;5075694;28;20177;-70
2021/12/06 00:39:04;;;;;;;23.57;18.03;;;6.10;99.90;;;;;;5075931;28;20169;-70
2021/12/06 00:41:30;;;;;;;23.93;17.20;;;5.80;99.90;;;;;;5075817;28;20681;-70
2021/12/06 00:43:55;;;;;;;22.90;17.40;;;5.70;99.90;;;;;;5075738;28;20173;-70
2021/12/06 00:46:22;;;;;;;20.87;16.47;;;5.70;99.90;;;;;;5075048;28;20173;-70
2021/12/06 00:48:47;;;;;;;25.97;17.07;;;5.70;99.90;;;;;;5075524;28;20193;-70
2021/12/06 00:51:15;;;;;;;19.90;16.70;;;5.60;99.90;;;;;;5075884;28;20260;-69
2021/12/06 00:53:42;;;;;;;22.90;17.23;;;5.80;99.90;;;;;;5075563;28;20711;-69
2021/12/06 00:56:07;;;;;;;23.97;17.67;;;5.60;99.90;;;;;;5075444;28;20247;-70
2021/12/06 00:58:33;;;;;;;23.93;17.40;;;5.40;99.90;;;;;;5075351;28;20277;-70
2021/12/06 01:00:59;;;;;;;24.00;17.57;;;5.50;99.90;;;;;;5074959;28;20176;-71
2021/12/06 01:03:32;;;;;;;23.00;17.33;;;5.60;99.90;;;;;;5075317;28;20680;-70
2021/12/06 01:05:57;;;;;;;23.40;16.87;;;5.70;99.90;;;;;;5075473;28;20172;-70
2021/12/06 01:08:23;;;;;;;23.00;17.30;;;5.90;99.90;;;;;;5075218;28;20224;-70
2021/12/06 01:10:50;;;;;;;24.97;17.80;;;6.00;99.90;;;;;;5075291;28;20190;-70
2021/12/06 01:13:16;;;;;;;21.93;16.73;;;6.00;99.90;;;;;;5075153;28;20225;-70
2021/12/06 01:15:42;;;;;;;22.83;16.87;;;6.10;99.90;;;;;;5074549;28;20176;-70
2021/12/06 01:18:10;;;;;;;24.03;17.07;;;6.00;99.90;;;;;;5075456;28;20177;-70
2021/12/06 01:20:47;;;;;;;22.63;17.67;;;5.90;99.90;;;;;;5075446;28;20181;-70
2021/12/06 01:23:15;;;;;;;23.80;17.53;;;5.90;99.90;;;;;;5074873;28;20223;-70
2021/12/06 01:31:30;;;;;;;25.23;18.47;;;6.20;99.90;;;;;;5074890;28;20259;-70
2021/12/06 01:39:26;;;;;;;24.47;18.63;;;6.20;99.90;;;;;;5075251;28;20176;-70
2021/12/06 01:41:56;;;;;;;24.17;18.43;;;6.10;99.90;;;;;;5074612;28;20176;-70
2021/12/06 01:44:41;;;;;;;25.53;18.00;;;5.90;99.90;;;;;;5074400;28;20191;-70
2021/12/06 01:47:20;;;;;;;24.37;18.63;;;5.80;99.90;;;;;;5074355;28;20200;-70
2021/12/06 01:49:53;;;;;;;28.20;19.40;;;5.90;99.90;;;;;;5074641;28;20247;-69
2021/12/06 01:52:23;;;;;;;25.73;19.13;;;6.00;99.90;;;;;;5073245;28;20204;-70
2021/12/06 01:54:50;;;;;;;26.33;18.70;;;6.20;99.90;;;;;;5074602;28;20218;-70
2021/12/06 01:57:16;;;;;;;26.33;18.50;;;6.30;99.90;;;;;;5074017;28;20165;-70
2021/12/06 01:59:42;;;;;;;29.30;19.53;;;6.30;99.90;;;;;;5073974;28;20168;-70
2021/12/06 02:02:09;;;;;;;28.60;19.27;;;6.20;99.90;;;;;;5074310;28;20164;-69
2021/12/06 02:04:36;;;;;;;25.77;19.30;;;6.20;99.90;;;;;;5074537;28;20168;-71
2021/12/06 02:07:06;;;;;;;27.33;19.80;;;6.20;99.90;;;;;;5074309;28;20231;-69
2021/12/06 02:09:32;;;;;;;28.50;20.10;;;6.00;99.90;;;;;;5074300;28;20172;-69
2021/12/06 02:11:59;;;;;;;30.27;19.93;;;5.90;99.90;;;;;;5072741;28;20215;-69
2021/12/06 02:14:44;;;;;;;29.17;20.23;;;5.90;99.90;;;;;;5073821;28;20166;-71
2021/12/06 02:17:23;;;;;;;30.57;20.03;;;5.90;99.90;;;;;;5074051;28;20195;-69
2021/12/06 02:19:55;;;;;;;29.73;21.37;;;5.80;99.90;;;;;;5073955;28;20255;-69
2021/12/06 02:22:24;;;;;;;27.67;20.53;;;5.80;99.90;;;;;;5073615;28;20247;-69
2021/12/06 02:24:52;;;;;;;32.63;22.00;;;5.80;99.90;;;;;;5073835;28;20173;-69
2021/12/06 02:27:19;;;;;;;30.97;21.10;;;5.80;99.90;;;;;;5073083;28;20615;-70
2021/12/06 02:29:47;;;;;;;30.77;20.93;;;5.60;99.90;;;;;;5073788;28;20168;-69
2021/12/06 02:32:14;;;;;;;34.43;23.57;;;5.50;99.90;;;;;;5073950;28;20172;-69
2021/12/06 02:34:44;;;;;;;31.13;21.90;;;5.40;99.90;;;;;;5073717;28;20192;-70
2021/12/06 02:37:11;;;;;;;32.77;21.70;;;5.40;99.90;;;;;;5073825;28;20226;-69
2021/12/06 02:39:38;;;;;;;35.13;23.27;;;5.20;99.90;;;;;;5072876;28;20180;-69
2021/12/06 02:42:11;;;;;;;30.67;21.93;;;5.10;99.90;;;;;;5071826;28;20176;-69
2021/12/06 02:44:37;;;;;;;35.00;22.70;;;5.00;99.90;;;;;;5073643;28;20179;-69
2021/12/06 02:47:03;;;;;;;33.33;22.73;;;5.10;99.90;;;;;;5073454;28;20208;-70
2021/12/06 02:49:29;;;;;;;35.47;23.40;;;5.00;99.90;;;;;;5073407;28;20173;-69
2021/12/06 02:51:55;;;;;;;34.27;23.50;;;5.00;99.90;;;;;;5073567;28;20557;-69
2021/12/06 02:54:22;;;;;;;33.77;23.47;;;4.90;99.90;;;;;;5073405;28;20530;-69
2021/12/06 02:57:33;;;;;;;32.83;23.03;;;4.90;99.90;;;;;;5072820;28;20188;-69
2021/12/06 02:59:43;;;;;;;38.23;23.97;;;4.80;99.90;;;;;;5071063;28;20184;-69
2021/12/06 03:02:13;;;;;;;35.93;24.07;;;4.80;99.90;;;;;;5073149;28;20195;-69
2021/12/06 03:04:39;;;;;;;37.53;24.37;;;4.80;99.90;;;;;;5073421;28;20168;-70
2021/12/06 03:07:06;;;;;;;37.97;24.50;;;4.80;99.90;;;;;;5073107;28;20222;-70
2021/12/06 03:09:35;;;;;;;37.03;24.97;;;4.90;99.90;;;;;;5073040;28;20179;-70
2021/12/06 03:12:06;;;;;;;35.73;24.63;;;4.80;99.90;;;;;;5072764;28;20226;-70
2021/12/06 03:14:39;;;;;;;37.50;26.13;;;4.80;99.90;;;;;;5073061;28;20169;-69
2021/12/06 03:17:08;;;;;;;40.23;25.13;;;4.80;99.90;;;;;;5073169;28;20178;-69
2021/12/06 03:19:35;;;;;;;39.47;24.97;;;4.80;99.90;;;;;;5073047;28;20196;-70
2021/12/06 03:22:01;;;;;;;37.90;26.27;;;4.80;99.90;;;;;;5072666;28;20223;-69
2021/12/06 03:24:27;;;;;;;37.50;25.67;;;4.80;99.90;;;;;;5072867;28;20271;-69
2021/12/06 03:26:53;;;;;;;39.63;26.80;;;4.80;99.90;;;;;;5072394;28;20295;-69
2021/12/06 03:29:20;;;;;;;38.70;26.17;;;4.80;99.90;;;;;;5072954;28;20184;-70
2021/12/06 03:31:49;;;;;;;41.00;27.23;;;4.90;99.90;;;;;;5073028;28;20216;-70
2021/12/06 03:34:17;;;;;;;37.87;25.93;;;4.90;99.90;;;;;;5073037;28;20189;-69
2021/12/06 03:36:43;;;;;;;41.00;26.90;;;4.90;99.90;;;;;;5072590;28;20223;-69
2021/12/06 03:39:24;;;;;;;38.67;27.50;;;4.90;99.90;;;;;;5072642;28;20314;-69
2021/12/06 03:41:53;;;;;;;40.23;26.87;;;4.90;99.90;;;;;;5072238;28;20806;-69
2021/12/06 03:44:20;;;;;;;41.00;28.20;;;4.80;99.90;;;;;;5072952;28;20172;-69
2021/12/06 03:46:50;;;;;;;44.40;29.47;;;4.70;99.90;;;;;;5072607;28;20196;-69
2021/12/06 03:49:17;;;;;;;45.80;29.73;;;4.60;99.90;;;;;;5073016;28;20235;-69
2021/12/06 03:51:44;;;;;;;49.17;29.97;;;4.60;99.90;;;;;;5076432;28;20168;-69
2021/12/06 03:54:13;;;;;;;46.47;29.90;;;4.50;99.90;;;;;;5076274;28;20704;-69
2021/12/06 03:56:39;;;;;;;46.50;29.67;;;4.40;99.90;;;;;;5076761;28;20177;-69
2021/12/06 03:59:05;;;;;;;46.70;30.70;;;4.30;99.90;;;;;;5076577;28;20196;-69
2021/12/06 04:01:32;;;;;;;48.30;30.67;;;4.30;99.90;;;;;;5076594;28;20230;-70
2021/12/06 04:03:58;;;;;;;48.87;31.67;;;4.20;99.90;;;;;;5076699;28;20226;-69
2021/12/06 04:06:24;;;;;;;58.10;32.83;;;4.10;99.90;;;;;;5076134;28;20620;-69
2021/12/06 04:08:50;;;;;;;57.87;33.07;;;4.10;99.90;;;;;;5075819;28;20663;-70
2021/12/06 04:11:16;;;;;;;58.73;35.37;;;4.10;99.90;;;;;;5076225;28;20199;-69
2021/12/06 04:13:42;;;;;;;54.30;33.93;;;4.00;99.90;;;;;;5076397;28;20179;-70
2021/12/06 04:16:07;;;;;;;60.77;32.57;;;4.00;99.90;;;;;;5076143;28;20184;-70
2021/12/06 04:18:34;;;;;;;64.63;36.03;;;4.00;99.90;;;;;;5076108;28;20176;-71
2021/12/06 04:20:59;;;;;;;60.27;35.07;;;4.00;99.90;;;;;;5075750;28;20279;-70
2021/12/06 04:23:25;;;;;;;65.40;36.60;;;4.00;99.90;;;;;;5075277;28;20307;-70
2021/12/06 04:25:51;;;;;;;58.50;34.33;;;4.00;99.90;;;;;;5076137;28;20165;-69
2021/12/06 04:28:19;;;;;;;65.93;37.97;;;4.00;99.90;;;;;;5075790;28;20223;-70
2021/12/06 04:30:46;;;;;;;61.80;35.80;;;4.00;99.90;;;;;;5076010;28;20635;-70
2021/12/06 04:33:12;;;;;;;67.57;37.83;;;4.00;99.90;;;;;;5075918;28;20181;-70
2021/12/06 04:35:38;;;;;;;67.13;37.47;;;4.10;99.90;;;;;;5075578;28;20279;-70
2021/12/06 04:38:05;;;;;;;64.70;37.10;;;4.10;99.90;;;;;;5075418;28;20169;-70
2021/12/06 04:40:31;;;;;;;66.60;37.27;;;4.00;99.90;;;;;;5075722;28;20172;-70
2021/12/06 04:42:57;;;;;;;62.23;36.63;;;3.90;99.90;;;;;;5075607;28;20172;-70
2021/12/06 04:45:23;;;;;;;64.47;37.53;;;3.90;99.90;;;;;;5075610;28;20175;-70
2021/12/06 04:47:50;;;;;;;65.10;36.37;;;3.90;99.90;;;;;;5075428;28;20280;-69
2021/12/06 04:50:19;;;;;;;69.43;38.13;;;3.90;99.90;;;;;;5074932;28;20230;-70
2021/12/06 04:52:46;;;;;;;67.40;37.10;;;3.80;99.90;;;;;;5074956;28;20176;-70
2021/12/06 04:55:40;;;;;;;69.00;37.77;;;3.80;99.90;;;;;;5075486;28;20248;-70
2021/12/06 04:58:07;;;;;;;69.43;37.70;;;3.80;99.90;;;;;;5074993;28;20176;-70
2021/12/06 05:00:46;;;;;;;66.33;37.23;;;3.80;99.90;;;;;;5075321;28;20192;-70
2021/12/06 05:03:12;;;;;;;69.03;37.17;;;3.80;99.90;;;;;;5073764;28;20176;-70
2021/12/06 05:05:42;;;;;;;73.20;37.23;;;3.60;99.90;;;;;;5075309;28;20275;-70
2021/12/06 05:08:13;;;;;;;64.47;36.23;;;3.50;99.90;;;;;;5075115;28;20240;-70
2021/12/06 05:10:39;;;;;;;66.33;36.50;;;3.40;99.90;;;;;;5075124;28;20172;-70
2021/12/06 05:13:05;;;;;;;73.47;38.43;;;3.40;99.90;;;;;;5074949;28;20165;-70
2021/12/06 05:15:31;;;;;;;71.07;37.87;;;3.40;99.90;;;;;;5075297;28;20180;-70
2021/12/06 05:17:57;;;;;;;71.70;38.20;;;3.30;99.90;;;;;;5075091;28;20161;-70
2021/12/06 05:20:22;;;;;;;79.83;39.87;;;3.30;99.90;;;;;;5074453;28;20179;-70
2021/12/06 05:22:49;;;;;;;85.33;41.33;;;3.20;99.90;;;;;;5074435;28;20228;-69
2021/12/06 05:25:15;;;;;;;380.10;53.33;;;3.30;99.90;;;;;;5075212;28;20168;-70
2021/12/06 05:27:42;;;;;;;345.43;51.87;;;3.30;99.90;;;;;;5074766;28;20659;-70
2021/12/06 05:30:11;;;;;;;394.20;56.23;;;3.20;99.90;;;;;;5074855;28;20187;-70
2021/12/06 05:32:38;;;;;;;363.43;53.17;;;3.20;99.90;;;;;;5074604;28;20230;-71
2021/12/06 05:35:07;;;;;;;289.97;49.53;;;3.20;99.90;;;;;;5074457;28;20177;-70
2021/12/06 05:37:42;;;;;;;486.20;57.20;;;3.20;99.90;;;;;;5074542;28;20176;-70
2021/12/06 05:40:12;;;;;;;490.30;57.77;;;3.20;99.90;;;;;;5074426;28;20674;-71
2021/12/06 05:42:38;;;;;;;355.47;48.90;;;3.30;99.90;;;;;;5073817;28;20230;-69
2021/12/06 05:45:05;;;;;;;324.77;50.83;;;3.30;99.90;;;;;;5074470;28;20169;-70
2021/12/06 05:47:31;;;;;;;1139.57;96.80;;;3.30;99.90;;;;;;5074141;28;20208;-70
2021/12/06 05:49:57;;;;;;;426.37;58.47;;;3.30;99.90;;;;;;5074249;28;20677;-70
2021/12/06 05:52:23;;;;;;;144.13;40.33;;;3.40;99.90;;;;;;5073556;28;20699;-70
2021/12/06 05:54:49;;;;;;;137.13;41.07;;;3.30;99.90;;;;;;5074104;28;20267;-71
2021/12/06 05:57:15;;;;;;;328.83;50.47;;;3.40;99.90;;;;;;5073864;28;20168;-70
2021/12/06 05:59:42;;;;;;;229.73;44.73;;;3.50;99.90;;;;;;5074202;28;20554;-69
2021/12/06 06:02:10;;;;;;;219.70;45.20;;;3.60;99.90;;;;;;5074050;28;20177;-69
2021/12/06 06:04:36;;;;;;;273.13;48.03;;;3.70;99.90;;;;;;5074061;28;20214;-71
2021/12/06 06:07:01;;;;;;;297.07;49.93;;;3.60;99.90;;;;;;5073573;28;20204;-71
2021/12/06 06:09:27;;;;;;;169.97;46.27;;;3.80;99.90;;;;;;5072558;28;20310;-71
2021/12/06 06:11:53;;;;;;;142.33;43.30;;;3.80;99.90;;;;;;5073284;28;20169;-69
2021/12/06 06:14:18;;;;;;;149.53;43.93;;;3.90;99.90;;;;;;5072875;28;20648;-70
2021/12/06 06:16:48;;;;;;;140.13;43.07;;;3.90;99.90;;;;;;5073617;28;20582;-70
2021/12/06 06:19:21;;;;;;;160.57;43.60;;;3.90;99.90;;;;;;5072900;28;20226;-71
2021/12/06 06:21:48;;;;;;;109.37;41.93;;;3.90;99.90;;;;;;5073313;28;20284;-70
2021/12/06 06:24:14;;;;;;;97.07;40.53;;;4.00;99.90;;;;;;5073269;28;20188;-70
2021/12/06 06:26:40;;;;;;;118.70;43.97;;;4.10;99.90;;;;;;5073295;28;20168;-70
2021/12/06 06:29:06;;;;;;;95.23;43.70;;;4.20;99.90;;;;;;5072888;28;20217;-71
2021/12/06 06:31:32;;;;;;;89.33;41.13;;;4.40;99.90;;;;;;5073097;28;20168;-70
2021/12/06 06:33:57;;;;;;;89.50;40.40;;;4.50;99.90;;;;;;5072502;28;20181;-70
2021/12/06 06:36:23;;;;;;;96.80;42.20;;;4.50;99.90;;;;;;5073162;28;20597;-70
2021/12/06 06:38:48;;;;;;;86.80;39.13;;;4.50;99.90;;;;;;5072801;28;20179;-71
2021/12/06 06:41:14;;;;;;;80.83;40.60;;;4.40;99.90;;;;;;5072492;28;20299;-71
2021/12/06 06:43:40;;;;;;;73.93;38.23;;;4.50;99.90;;;;;;5072928;28;20165;-71
2021/12/06 06:46:06;;;;;;;74.77;39.70;;;4.60;99.90;;;;;;5072469;28;20624;-71
2021/12/06 06:48:33;;;;;;;80.27;39.63;;;4.60;99.90;;;;;;5072022;28;20736;-70
2021/12/06 06:50:59;;;;;;;81.43;40.90;;;4.80;99.90;;;;;;5072700;28;20165;-71
2021/12/06 06:53:26;;;;;;;87.00;41.57;;;4.80;99.90;;;;;;5072717;28;20180;-71
2021/12/06 06:55:53;;;;;;;81.20;40.00;;;4.90;99.90;;;;;;5072352;28;20222;-71
2021/12/06 06:58:18;;;;;;;81.37;39.63;;;5.10;99.90;;;;;;5072116;28;20173;-71
2021/12/06 07:00:44;;;;;;;83.17;40.47;;;5.10;99.90;;;;;;5072323;28;20653;-70
2021/12/06 07:03:10;;;;;;;87.53;40.20;;;5.00;99.90;;;;;;5072352;28;20169;-70
2021/12/06 07:05:38;;;;;;;73.73;38.53;;;5.00;99.90;;;;;;5072501;28;20172;-70
2021/12/06 07:08:04;;;;;;;80.07;40.73;;;4.80;99.90;;;;;;5072431;28;20216;-71
2021/12/06 07:10:30;;;;;;;75.73;39.50;;;4.90;99.90;;;;;;5071622;28;20255;-70
2021/12/06 07:12:56;;;;;;;78.83;39.47;;;4.90;99.90;;;;;;5070901;28;20246;-70
2021/12/06 07:15:27;;;;;;;83.00;40.23;;;4.90;99.90;;;;;;5072344;28;20173;-70
2021/12/06 07:17:53;;;;;;;79.23;40.63;;;4.60;99.90;;;;;;5071725;28;20198;-69
2021/12/06 07:20:21;;;;;;;77.70;40.20;;;4.70;99.90;;;;;;5072129;28;20627;-70
2021/12/06 07:22:48;;;;;;;87.07;42.33;;;4.80;99.90;;;;;;5071724;28;20228;-71
2021/12/06 07:25:16;;;;;;;85.73;41.13;;;5.00;99.90;;;;;;5071912;28;20173;-71
2021/12/06 07:27:42;;;;;;;88.97;41.37;;;5.00;99.90;;;;;;5071597;28;20286;-71
2021/12/06 07:30:10;;;;;;;90.90;42.53;;;5.00;99.90;;;;;;5072257;28;20248;-70
2021/12/06 07:32:36;;;;;;;94.00;42.53;;;5.00;99.90;;;;;;5071898;28;20635;-71
2021/12/06 07:35:03;;;;;;;95.90;41.87;;;5.00;99.90;;;;;;5072667;28;20233;-71
2021/12/06 07:37:29;;;;;;;88.57;40.67;;;5.00;99.90;;;;;;5071853;28;20217;-70
2021/12/06 07:39:55;;;;;;;83.13;40.87;;;5.00;99.90;;;;;;5071720;28;20601;-71
2021/12/06 07:42:21;;;;;;;87.90;40.70;;;5.00;99.90;;;;;;5072091;28;20175;-71
2021/12/06 07:44:47;;;;;;;91.00;41.83;;;5.00;99.90;;;;;;5071969;28;20167;-70
2021/12/06 07:47:13;;;;;;;85.17;40.43;;;5.10;99.90;;;;;;5071219;28;20265;-70
2021/12/06 07:49:43;;;;;;;78.47;38.43;;;5.10;99.90;;;;;;5071448;28;20260;-70
2021/12/06 07:52:09;;;;;;;76.57;38.80;;;5.10;99.90;;;;;;5071301;28;20275;-70
2021/12/06 07:54:34;;;;;;;77.77;38.17;;;5.10;99.90;;;;;;5072821;28;20216;-69
2021/12/06 07:57:00;;;;;;;72.30;36.27;;;5.30;99.90;;;;;;5071181;28;20506;-70
2021/12/06 07:59:27;;;;;;;69.73;35.60;;;5.20;99.90;;;;;;5070876;28;20184;-70
2021/12/06 08:01:53;;;;;;;64.27;32.37;;;5.20;99.90;;;;;;5071225;28;20167;-70
2021/12/06 08:04:19;;;;;;;61.80;32.80;;;5.10;99.90;;;;;;5072359;28;20616;-70
2021/12/06 08:06:45;;;;;;;71.23;32.00;;;5.00;99.90;;;;;;5071605;28;20219;-70
2021/12/06 08:09:11;;;;;;;60.37;32.23;;;4.90;99.90;;;;;;5071227;28;20180;-71
2021/12/06 08:11:36;;;;;;;57.50;31.43;;;5.00;99.90;;;;;;5059391;28;20185;-71
2021/12/06 08:14:03;;;;;;;60.73;30.50;;;5.00;99.90;;;;;;5056272;28;20265;-71
2021/12/06 08:16:32;;;;;;;60.20;30.73;;;5.00;99.90;;;;;;5063932;28;20240;-70
2021/12/06 08:19:01;;;;;;;53.77;29.43;;;5.20;99.90;;;;;;5064116;28;20183;-72
2021/12/06 08:21:31;;;;;;;60.53;29.50;;;5.10;99.90;;;;;;5057430;28;20208;-70
2021/12/06 08:23:58;;;;;;;51.77;27.77;;;5.30;99.90;;;;;;5053537;28;20236;-69
2021/12/06 08:26:27;;;;;;;48.00;26.17;;;5.60;99.90;;;;;;5052308;28;20688;-70
2021/12/06 08:28:55;;;;;;;50.43;26.97;;;5.80;99.90;;;;;;5063857;28;20215;-70
2021/12/06 08:31:22;;;;;;;49.33;26.57;;;5.70;99.90;;;;;;5056755;28;20177;-70
2021/12/06 08:33:53;;;;;;;45.60;25.23;;;5.90;99.90;;;;;;5051145;28;20203;-69
2021/12/06 08:36:20;;;;;;;40.23;24.57;;;5.90;99.90;;;;;;5058609;28;20200;-69
2021/12/06 08:38:46;;;;;;;39.20;23.53;;;5.90;99.90;;;;;;5075385;28;20172;-70
2021/12/06 08:41:17;;;;;;;41.80;23.80;;;6.10;99.90;;;;;;5067407;28;20752;-70
2021/12/06 08:43:44;;;;;;;40.33;24.73;;;6.20;99.90;;;;;;5054886;28;20173;-70
2021/12/06 08:46:16;;;;;;;40.80;23.87;;;6.10;99.90;;;;;;5055314;28;20188;-70
2021/12/06 08:48:44;;;;;;;37.27;22.80;;;6.00;99.90;;;;;;5073496;28;20235;-68
2021/12/06 08:51:20;;;;;;;41.07;20.80;;;6.40;99.90;;;;;;5074773;28;20196;-70
2021/12/06 08:53:47;;;;;;;36.77;21.57;;;6.80;99.90;;;;;;5073591;28;20187;-70
2021/12/06 08:56:13;;;;;;;32.97;20.77;;;7.50;99.90;;;;;;5064101;28;20185;-72
2021/12/06 08:58:40;;;;;;;32.90;19.67;;;8.30;99.90;;;;;;5062456;28;20632;-72
2021/12/06 09:01:06;;;;;;;31.80;19.10;;;8.80;99.90;;;;;;5054470;28;20572;-72
2021/12/06 09:03:34;;;;;;;30.03;19.70;;;9.50;99.90;;;;;;5057776;28;20189;-72
2021/12/06 09:06:06;;;;;;;26.87;18.40;;;10.10;99.90;;;;;;5055382;28;20549;-72
2021/12/06 09:08:32;;;;;;;23.37;17.53;;;10.20;99.90;;;;;;5072247;28;20243;-72
2021/12/06 09:11:01;;;;;;;27.73;17.70;;;10.40;99.90;;;;;;5067729;28;20231;-71
2021/12/06 09:13:29;;;;;;;27.87;17.60;;;10.30;99.90;;;;;;5060130;28;20189;-72
2021/12/06 09:15:56;;;;;;;28.50;17.40;;;10.10;99.90;;;;;;5054824;28;20188;-73
2021/12/06 09:18:23;;;;;;;27.97;17.43;;;10.10;99.90;;;;;;5066752;28;20290;-72
2021/12/06 09:20:51;;;;;;;27.20;18.20;;;10.20;99.90;;;;;;5059883;28;20176;-73
2021/12/06 09:23:17;;;;;;;17.47;14.77;;;10.30;99.90;;;;;;5066796;28;20220;-74
2021/12/06 09:25:45;;;;;;;19.50;15.30;;;10.40;99.90;;;;;;5055645;28;20538;-74
2021/12/06 09:28:13;;;;;;;18.57;15.07;;;11.10;99.90;;;;;;5064685;28;20216;-74
2021/12/06 09:30:39;;;;;;;18.43;14.90;;;11.80;99.40;;;;;;5059496;28;20183;-74
2021/12/06 09:33:07;;;;;;;20.90;17.00;;;12.60;97.10;;;;;;5062180;28;20175;-74
2021/12/06 09:35:37;;;;;;;23.70;16.87;;;13.40;95.10;;;;;;5054763;28;20188;-73
2021/12/06 09:38:05;;;;;;;20.77;16.20;;;13.90;93.60;;;;;;5061204;28;20172;-75
2021/12/06 09:40:32;;;;;;;19.73;16.40;;;14.30;92.20;;;;;;5057180;28;20173;-74
2021/12/06 09:43:00;;;;;;;23.97;17.10;;;14.90;90.60;;;;;;5066202;28;20382;-73
2021/12/06 09:45:30;;;;;;;25.80;16.30;;;15.30;89.20;;;;;;5062964;28;20215;-74
2021/12/06 09:47:56;;;;;;;21.63;17.08;;;15.80;86.60;;;;;;5061521;28;20307;-79
2021/12/06 09:50:28;;;;;;;20.90;14.52;;;15.60;85.90;;;;;;5066175;28;20526;-74
2021/12/06 09:52:57;;;;;;;16.60;13.88;;;15.80;82.40;;;;;;5053020;28;20204;-74
2021/12/06 09:55:25;;;;;;;20.17;14.35;;;15.50;82.10;;;;;;5064777;28;20222;-75
2021/12/06 09:57:51;;;;;;;16.08;13.93;;;15.50;82.90;;;;;;5057901;28;20265;-74
2021/12/06 10:00:19;;;;;;;16.30;13.70;;;15.00;82.90;;;;;;5059540;28;20271;-75
2021/12/06 10:02:45;;;;;;;13.73;12.32;;;15.10;82.60;;;;;;5053278;28;20243;-74
2021/12/06 10:05:11;;;;;;;17.60;13.88;;;14.60;82.20;;;;;;5065617;28;20596;-74
2021/12/06 10:07:37;;;;;;;16.60;14.45;;;14.20;84.30;;;;;;5065458;28;20209;-74
2021/12/06 10:10:09;;;;;;;19.07;14.33;;;13.70;85.70;;;;;;5058310;28;20235;-73
2021/12/06 10:12:35;;;;;;;17.50;14.17;;;13.00;88.90;;;;;;5051860;28;20673;-73
2021/12/06 10:15:03;;;;;;;18.07;12.90;;;12.70;90.70;;;;;;5072068;28;20216;-74
2021/12/06 10:17:29;;;;;;;17.10;13.03;;;12.30;91.70;;;;;;5064906;28;20180;-74
2021/12/06 10:19:55;;;;;;;15.50;12.70;;;11.80;91.60;;;;;;5058603;28;20219;-72
2021/12/06 10:22:22;;;;;;;15.10;12.07;;;11.10;93.60;;;;;;5058518;28;20217;-72
2021/12/06 10:24:54;;;;;;;18.23;12.53;;;11.00;94.10;;;;;;5064249;28;20209;-72
2021/12/06 10:27:20;;;;;;;17.67;13.27;;;10.80;94.80;;;;;;5063041;28;20236;-73
2021/12/06 10:29:49;;;;;;;15.00;12.47;;;10.80;95.50;;;;;;5060168;28;20181;-73
2021/12/06 10:32:27;;;;;;;16.70;12.00;;;10.70;95.60;;;;;;5062273;28;20192;-72
2021/12/06 10:35:00;;;;;;;13.87;12.17;;;10.40;96.50;;;;;;5060131;28;20648;-72
2021/12/06 10:37:30;;;;;;;13.77;12.03;;;10.10;97.50;;;;;;5064029;28;20177;-73
2021/12/06 10:39:56;;;;;;;16.53;10.90;;;9.60;98.40;;;;;;5058263;28;20174;-74
2021/12/06 10:42:36;;;;;;;13.33;11.60;;;9.20;99.90;;;;;;5056318;28;20176;-74
2021/12/06 10:45:08;;;;;;;14.30;11.50;;;8.70;99.90;;;;;;5052591;28;20181;-74
2021/12/06 10:47:35;;;;;;;13.03;11.10;;;8.90;99.90;;;;;;5056153;28;20212;-73
2021/12/06 10:50:27;;;;;;;12.13;10.50;;;8.70;99.90;;;;;;5063936;28;20177;-73
2021/12/06 10:52:57;;;;;;;13.80;11.73;;;9.10;99.90;;;;;;5050448;28;20185;-74
2021/12/06 10:55:28;;;;;;;16.37;13.30;;;9.60;99.90;;;;;;5059623;28;20184;-75
2021/12/06 10:57:59;;;;;;;14.00;9.70;;;10.00;97.60;;;;;;5069944;28;20181;-74
2021/12/06 11:00:30;;;;;;;12.10;9.07;;;10.00;96.60;;;;;;5058060;28;20625;-73
2021/12/06 11:02:56;;;;;;;10.13;9.03;;;9.90;96.60;;;;;;5054752;28;20711;-73
2021/12/06 11:05:28;;;;;;;10.47;8.20;;;10.20;95.70;;;;;;5058484;28;20181;-74
2021/12/06 11:08:17;;;;;;;15.77;14.20;;;10.10;95.00;;;;;;5060273;28;20209;-74
2021/12/06 11:10:47;;;;;;;11.90;10.70;;;10.10;95.30;;;;;;5055670;28;20181;-74
2021/12/06 11:13:24;;;;;;;10.13;8.90;;;10.10;95.70;;;;;;5058475;28;20237;-73
2021/12/06 11:16:05;;;;;;;12.80;9.33;;;10.30;95.70;;;;;;5055852;28;20660;-72
2021/12/06 11:18:40;;;;;;;10.50;8.47;;;10.40;95.00;;;;;;5058097;28;20184;-71
2021/12/06 11:21:17;;;;;;;10.63;8.63;;;10.10;95.20;;;;;;5055801;28;20243;-71
2021/12/06 11:24:05;;;;;;;10.43;9.43;;;9.90;96.40;;;;;;5061802;28;20232;-71
2021/12/06 11:26:33;;;;;;;9.60;8.70;;;9.70;96.90;;;;;;5065023;28;20183;-72
2021/12/06 11:29:08;;;;;;;29.73;26.63;;;9.90;96.80;;;;;;5054189;28;20563;-72
2021/12/06 11:31:35;;;;;;;12.70;9.03;;;10.00;96.60;;;;;;5054341;28;20192;-72
2021/12/06 11:34:04;;;;;;;9.23;8.33;;;10.10;95.90;;;;;;5060661;28;20181;-72
2021/12/06 11:36:31;;;;;;;10.30;8.13;;;10.50;95.50;;;;;;5052052;28;20972;-72
2021/12/06 11:39:01;;;;;;;10.83;8.23;;;10.30;95.10;;;;;;5051277;28;20177;-71
2021/12/06 11:41:27;;;;;;;10.03;8.10;;;9.90;96.50;;;;;;5072368;28;20169;-71
2021/12/06 11:43:52;;;;;;;11.03;8.90;;;9.50;97.50;;;;;;5072672;28;20180;-71
2021/12/06 11:46:30;;;;;;;11.13;8.17;;;9.20;98.00;;;;;;5071682;28;20255;-71
2021/12/06 11:48:56;;;;;;;10.07;8.57;;;9.10;98.80;;;;;;5071499;28;20670;-71
2021/12/06 11:51:24;;;;;;;11.67;9.10;;;9.00;99.80;;;;;;5072062;28;20195;-72
2021/12/06 11:53:54;;;;;;;10.00;8.30;;;8.90;99.90;;;;;;5071370;28;20280;-71
2021/12/06 11:56:24;;;;;;;10.60;8.97;;;8.70;99.90;;;;;;5070956;28;20181;-72
2021/12/06 11:58:59;;;;;;;12.40;8.97;;;8.40;99.90;;;;;;5071985;28;20612;-72
2021/12/06 12:01:24;;;;;;;10.53;8.40;;;8.30;99.90;;;;;;5071585;28;20174;-71
2021/12/06 12:03:54;;;;;;;11.43;8.97;;;8.00;99.90;;;;;;5072191;28;20172;-71
2021/12/06 12:06:28;;;;;;;10.43;8.07;;;7.80;99.90;;;;;;5071091;28;20177;-71
2021/12/06 12:09:11;;;;;;;10.90;8.43;;;7.80;99.90;;;;;;5071413;28;20216;-72
2021/12/06 12:11:57;;;;;;;10.07;8.07;;;7.80;99.90;;;;;;5072639;28;20688;-71
2021/12/06 12:14:33;;;;;;;9.53;7.70;;;7.90;99.90;;;;;;5072875;28;20187;-71
2021/12/06 12:17:02;;;;;;;11.67;8.60;;;7.90;99.90;;;;;;5066962;28;20173;-70
2021/12/06 12:19:28;;;;;;;37.57;27.23;;;7.90;99.90;;;;;;5068622;28;20177;-71
2021/12/06 12:21:54;;;;;;;8.13;6.40;;;7.80;99.90;;;;;;5074286;28;20165;-71
2021/12/06 12:24:21;;;;;;;10.50;7.97;;;7.90;99.90;;;;;;5075437;28;20698;-72
2021/12/06 12:27:02;;;;;;;9.33;7.13;;;7.90;99.90;;;;;;5074604;28;20165;-71
2021/12/06 12:29:29;;;;;;;8.63;7.13;;;8.10;99.90;;;;;;5075265;28;20246;-71
2021/12/06 12:32:02;;;;;;;19.10;17.07;;;8.20;99.90;;;;;;5075492;28;20654;-71
2021/12/06 12:34:32;;;;;;;11.57;8.50;;;8.20;99.90;;;;;;5074996;28;20177;-72
2021/12/06 12:36:57;;;;;;;9.47;7.60;;;8.20;99.90;;;;;;5074851;28;20204;-72
2021/12/06 12:39:25;;;;;;;12.50;7.93;;;8.10;99.90;;;;;;5075567;28;20690;-72
2021/12/06 12:42:00;;;;;;;9.10;7.97;;;7.90;99.90;;;;;;5074105;28;20176;-72
2021/12/06 12:44:42;;;;;;;19.73;18.10;;;8.00;99.90;;;;;;5075785;28;20164;-72
2021/12/06 12:47:21;;;;;;;13.83;10.80;;;8.00;99.90;;;;;;5075183;28;20749;-71
2021/12/06 12:49:53;;;;;;;14.00;11.03;;;8.00;99.90;;;;;;5073645;28;20160;-72
2021/12/06 12:52:45;;;;;;;15.40;11.67;;;7.90;99.90;;;;;;5071046;28;20180;-73
2021/12/06 12:55:31;;;;;;;11.93;7.87;;;7.90;99.90;;;;;;5053775;28;20177;-71